createdAt,value
2022-11-30T00:00:01.959Z,101619.16
2022-11-30T00:03:16.665Z,101621.78
2022-11-30T00:06:23.160Z,101622.63
2022-11-30T00:09:26.378Z,101627.78
2022-11-30T00:12:30.126Z,101628.59
2022-11-30T00:15:34.919Z,101624.28
2022-11-30T00:18:39.877Z,101634.63
2022-11-30T00:21:42.875Z,101630.44
2022-11-30T00:24:46.084Z,101634.81
2022-11-30T00:27:52.128Z,101628.72
2022-11-30T00:30:59.190Z,101628.75
2022-11-30T00:34:04.768Z,101644.41
2022-11-30T00:37:07.981Z,101637.63
2022-11-30T00:40:12.189Z,101635.00
2022-11-30T00:43:15.542Z,101634.09
2022-11-30T00:46:19.404Z,101639.25
2022-11-30T00:49:24.401Z,101635.84
2022-11-30T00:52:29.375Z,101633.31
2022-11-30T00:55:33.359Z,101642.97
2022-11-30T00:58:36.730Z,101634.44
2022-11-30T01:01:39.800Z,101640.50
2022-11-30T01:04:44.532Z,101640.50
2022-11-30T01:07:47.887Z,101642.97
2022-11-30T01:10:54.335Z,101643.78
2022-11-30T01:13:59.791Z,101646.31
2022-11-30T01:17:02.823Z,101641.28
2022-11-30T01:20:09.027Z,101646.59
2022-11-30T01:23:12.630Z,101648.31
2022-11-30T01:26:16.301Z,101644.88
2022-11-30T01:29:19.364Z,101649.97
2022-11-30T01:32:22.431Z,101649.06
2022-11-30T01:35:29.733Z,101654.22
2022-11-30T01:38:34.524Z,101653.50
2022-11-30T01:41:41.455Z,101654.28
2022-11-30T01:45:05.329Z,101646.59
2022-11-30T01:48:11.014Z,101645.03
2022-11-30T01:51:17.857Z,101650.91
2022-11-30T01:54:27.668Z,101648.28
2022-11-30T01:57:37.078Z,101649.25
2022-11-30T02:00:43.453Z,101650.03
2022-11-30T02:03:55.843Z,101648.44
2022-11-30T02:07:04.843Z,101654.50
2022-11-30T02:10:13.778Z,101660.50
2022-11-30T02:13:36.996Z,101651.75
2022-11-30T02:16:57.151Z,101659.53
2022-11-30T02:20:29.438Z,101654.31
2022-11-30T02:24:07.569Z,101654.56
2022-11-30T02:27:37.806Z,101660.50
2022-11-30T02:30:49.070Z,101651.16
2022-11-30T02:33:57.502Z,101651.09
2022-11-30T02:37:02.221Z,101657.06
2022-11-30T02:40:16.123Z,101660.50
2022-11-30T02:43:22.931Z,101662.13
2022-11-30T02:46:36.375Z,101657.97
2022-11-30T02:49:47.961Z,101656.19
2022-11-30T02:52:54.887Z,101658.06
2022-11-30T02:55:58.129Z,101656.34
2022-11-30T02:59:01.690Z,101661.56
2022-11-30T03:02:06.503Z,101663.25
2022-11-30T03:05:10.296Z,101659.81
2022-11-30T03:08:13.304Z,101664.06
2022-11-30T03:11:16.325Z,101670.13
2022-11-30T03:14:19.563Z,101669.28
2022-11-30T03:17:24.229Z,101670.22
2022-11-30T03:20:33.487Z,101677.13
2022-11-30T03:23:37.343Z,101673.66
2022-11-30T03:26:40.455Z,101674.59
2022-11-30T03:29:43.479Z,101671.97
2022-11-30T03:32:47.903Z,101677.19
2022-11-30T03:35:59.868Z,101689.31
2022-11-30T03:39:02.996Z,101685.91
2022-11-30T03:42:06.298Z,101684.91
2022-11-30T03:45:10.070Z,101690.09
2022-11-30T03:48:14.345Z,101689.28
2022-11-30T03:51:17.329Z,101685.84
2022-11-30T03:54:26.721Z,101689.28
2022-11-30T03:57:29.857Z,101684.91
2022-11-30T04:00:32.866Z,101688.38
2022-11-30T04:03:39.916Z,101695.22
2022-11-30T04:06:51.681Z,101689.16
2022-11-30T04:09:57.760Z,101688.38
2022-11-30T04:13:01.125Z,101697.94
2022-11-30T04:16:05.724Z,101697.94
2022-11-30T04:19:10.075Z,101696.28
2022-11-30T04:22:15.951Z,101704.13
2022-11-30T04:25:19.045Z,101700.72
2022-11-30T04:28:22.224Z,101698.97
2022-11-30T04:31:25.290Z,101700.69
2022-11-30T04:34:31.578Z,101703.31
2022-11-30T04:37:34.582Z,101706.72
2022-11-30T04:40:41.301Z,101711.88
2022-11-30T04:43:44.318Z,101711.03
2022-11-30T04:46:47.297Z,101718.81
2022-11-30T04:49:51.667Z,101717.03
2022-11-30T04:52:54.836Z,101723.06
2022-11-30T04:55:57.912Z,101720.44
2022-11-30T04:59:02.792Z,101722.25
2022-11-30T05:02:06.204Z,101717.97
2022-11-30T05:05:11.864Z,101720.53
2022-11-30T05:08:14.867Z,101719.66
2022-11-30T05:11:17.863Z,101723.94
2022-11-30T05:14:20.798Z,101730.00
2022-11-30T05:17:23.822Z,101728.25
2022-11-30T05:20:28.169Z,101742.88
2022-11-30T05:23:31.103Z,101743.72
2022-11-30T05:26:34.437Z,101737.66
2022-11-30T05:29:37.617Z,101747.13
2022-11-30T05:32:40.636Z,101747.97
2022-11-30T05:35:45.226Z,101754.00
2022-11-30T05:38:49.377Z,101754.81
2022-11-30T05:41:52.518Z,101753.00
2022-11-30T05:44:55.983Z,101760.00
2022-11-30T05:47:59.066Z,101755.75
2022-11-30T05:51:08.682Z,101763.47
2022-11-30T05:54:11.705Z,101754.81
2022-11-30T05:57:14.759Z,101766.06
2022-11-30T06:00:19.039Z,101766.13
2022-11-30T06:03:22.100Z,101777.97
2022-11-30T06:06:26.431Z,101774.50
2022-11-30T06:09:30.126Z,101773.63
2022-11-30T06:12:33.140Z,101778.69
2022-11-30T06:15:37.730Z,101783.91
2022-11-30T06:18:40.887Z,101777.91
2022-11-30T06:21:45.336Z,101781.28
2022-11-30T06:24:48.585Z,101788.06
2022-11-30T06:27:52.178Z,101788.13
2022-11-30T06:30:59.724Z,101794.06
2022-11-30T06:34:02.846Z,101788.97
2022-11-30T06:37:07.200Z,101803.53
2022-11-30T06:40:13.088Z,101799.22
2022-11-30T06:43:16.136Z,101799.19
2022-11-30T06:46:19.223Z,101806.06
2022-11-30T06:49:22.656Z,101807.63
2022-11-30T06:52:27.313Z,101812.09
2022-11-30T06:55:32.764Z,101817.31
2022-11-30T06:58:36.929Z,101822.50
2022-11-30T07:01:39.911Z,101821.72
2022-11-30T07:04:43.470Z,101830.25
2022-11-30T07:07:48.062Z,101829.44
2022-11-30T07:10:51.392Z,101830.25
2022-11-30T07:13:54.365Z,101829.44
2022-11-30T07:16:57.766Z,101831.84
2022-11-30T07:20:00.731Z,101836.97
2022-11-30T07:23:19.468Z,101839.53
2022-11-30T07:26:22.952Z,101839.53
2022-11-30T07:29:25.921Z,101846.41
2022-11-30T07:32:28.899Z,101846.47
2022-11-30T07:35:31.830Z,101850.78
2022-11-30T07:38:36.089Z,101860.19
2022-11-30T07:41:40.239Z,101858.34
2022-11-30T07:44:43.284Z,101859.16
2022-11-30T07:47:46.339Z,101858.34
2022-11-30T07:50:50.253Z,101858.41
2022-11-30T07:53:57.707Z,101864.34
2022-11-30T07:57:00.820Z,101865.25
2022-11-30T08:00:05.396Z,101866.09
2022-11-30T08:03:15.130Z,101871.28
2022-11-30T08:06:20.946Z,101866.19
2022-11-30T08:09:25.221Z,101868.72
2022-11-30T08:12:28.196Z,101868.66
2022-11-30T08:15:33.289Z,101876.28
2022-11-30T08:18:37.259Z,101876.34
2022-11-30T08:21:40.197Z,101875.50
2022-11-30T08:24:44.434Z,101880.59
2022-11-30T08:27:47.351Z,101883.16
2022-11-30T08:30:50.285Z,101878.88
2022-11-30T08:33:57.847Z,101880.38
2022-11-30T08:37:00.912Z,101895.88
2022-11-30T08:40:06.987Z,101885.53
2022-11-30T08:43:12.476Z,101885.47
2022-11-30T08:49:40.562Z,101897.56
2022-11-30T08:52:43.704Z,101906.97
2022-11-30T08:55:58.580Z,101907.81
2022-11-30T08:59:01.569Z,101911.97
2022-11-30T09:02:05.630Z,101911.00
2022-11-30T09:05:09.260Z,101907.66
2022-11-30T09:08:12.400Z,101912.72
2022-11-30T09:11:19.087Z,101917.00
2022-11-30T09:14:22.415Z,101915.38
2022-11-30T09:17:25.425Z,101923.03
2022-11-30T09:20:28.430Z,101912.56
2022-11-30T09:23:31.956Z,101914.16
2022-11-30T09:26:40.804Z,101917.50
2022-11-30T09:29:43.859Z,101918.28
2022-11-30T09:32:46.893Z,101919.97
2022-11-30T09:35:57.645Z,101923.31
2022-11-30T09:39:04.403Z,101922.38
2022-11-30T09:42:30.016Z,101929.13
2022-11-30T09:45:38.983Z,101927.28
2022-11-30T09:48:55.307Z,101926.13
2022-11-30T09:52:03.482Z,101932.09
2022-11-30T09:55:11.276Z,101915.44
2022-11-30T09:58:28.671Z,101917.13
2022-11-30T10:01:32.956Z,101928.25
2022-11-30T10:04:37.230Z,101927.91
2022-11-30T10:07:57.827Z,101926.31
2022-11-30T10:11:25.705Z,101930.38
2022-11-30T10:14:58.715Z,101931.22
2022-11-30T10:18:17.261Z,101934.63
2022-11-30T10:21:37.838Z,101931.91
2022-11-30T10:25:01.516Z,101941.09
2022-11-30T10:28:44.945Z,101939.38
2022-11-30T10:31:44.675Z,101945.44
2022-11-30T10:34:52.252Z,101944.69
2022-11-30T10:37:57.958Z,101941.84
2022-11-30T10:41:10.628Z,101940.78
2022-11-30T10:44:19.859Z,101948.72
2022-11-30T10:47:29.460Z,101943.94
2022-11-30T10:50:32.653Z,101949.06
2022-11-30T10:53:35.754Z,101945.91
2022-11-30T10:56:38.918Z,101953.44
2022-11-30T10:59:46.276Z,101954.94
2022-11-30T11:02:51.586Z,101954.03
2022-11-30T11:06:13.783Z,101959.09
2022-11-30T11:09:53.179Z,101956.78
2022-11-30T11:12:57.160Z,101958.41
2022-11-30T11:16:02.263Z,101962.50
2022-11-30T11:19:33.256Z,101969.72
2022-11-30T11:22:38.243Z,101964.28
2022-11-30T11:25:43.152Z,101971.06
2022-11-30T11:28:50.339Z,101981.38
2022-11-30T11:31:53.279Z,101979.69
2022-11-30T11:34:58.796Z,101976.16
2022-11-30T11:38:01.818Z,101968.28
2022-11-30T11:41:09.868Z,101977.72
2022-11-30T11:44:22.262Z,101972.25
2022-11-30T11:47:28.309Z,101989.59
2022-11-30T11:51:05.618Z,101992.19
2022-11-30T11:53:59.866Z,101996.03
2022-11-30T11:57:03.651Z,101994.25
2022-11-30T12:00:16.862Z,101994.06
2022-11-30T12:03:29.508Z,101994.91
2022-11-30T12:06:35.589Z,101997.06
2022-11-30T12:09:45.664Z,101998.84
2022-11-30T12:12:53.446Z,101992.44
2022-11-30T12:16:08.730Z,102000.13
2022-11-30T12:19:16.592Z,102001.81
2022-11-30T12:22:44.434Z,102005.47
2022-11-30T12:25:56.120Z,101998.50
2022-11-30T12:29:24.231Z,101999.72
2022-11-30T12:32:44.190Z,101992.66
2022-11-30T12:36:00.198Z,101997.06
2022-11-30T12:39:10.839Z,101999.13
2022-11-30T12:42:20.534Z,101997.44
2022-11-30T12:45:30.711Z,101996.56
2022-11-30T12:48:45.836Z,101995.75
2022-11-30T12:52:00.298Z,102006.25
2022-11-30T12:55:20.898Z,102003.25
2022-11-30T12:58:32.048Z,102007.31
2022-11-30T13:01:57.528Z,102011.19
2022-11-30T13:05:05.261Z,102011.31
2022-11-30T13:08:20.065Z,102006.41
2022-11-30T13:11:30.878Z,102013.16
2022-11-30T13:14:35.844Z,102010.84
2022-11-30T13:17:39.365Z,102016.16
2022-11-30T13:20:54.313Z,102023.97
2022-11-30T13:24:07.129Z,102023.34
2022-11-30T13:27:19.167Z,102021.00
2022-11-30T13:30:39.904Z,102016.41
2022-11-30T13:33:57.834Z,102023.56
2022-11-30T13:37:07.106Z,102023.00
2022-11-30T13:40:22.334Z,102021.56
2022-11-30T13:43:30.569Z,102024.41
2022-11-30T13:46:33.681Z,102014.88
2022-11-30T13:49:37.642Z,102001.19
2022-11-30T13:53:20.299Z,102006.47
2022-11-30T13:56:35.902Z,102016.22
2022-11-30T13:59:47.577Z,102015.56
2022-11-30T14:02:54.429Z,102014.06
2022-11-30T14:05:58.748Z,102020.31
2022-11-30T14:09:01.714Z,102030.00
2022-11-30T14:12:53.829Z,102029.06
2022-11-30T14:16:01.468Z,102019.00
2022-11-30T14:19:07.840Z,102012.41
2022-11-30T14:22:12.789Z,102020.28
2022-11-30T14:25:18.327Z,102009.31
2022-11-30T14:28:25.498Z,102007.66
2022-11-30T14:31:36.086Z,102006.00
2022-11-30T14:34:43.784Z,101999.16
2022-11-30T14:37:54.005Z,101998.25
2022-11-30T14:40:57.891Z,101998.25
2022-11-30T14:44:03.868Z,101990.59
2022-11-30T14:47:23.665Z,101980.16
2022-11-30T14:50:27.896Z,101984.38
2022-11-30T14:53:37.480Z,101981.81
2022-11-30T14:56:47.206Z,101980.06
2022-11-30T14:59:53.115Z,101976.50
2022-11-30T15:02:57.495Z,101981.69
2022-11-30T15:06:03.669Z,101975.81
2022-11-30T15:09:14.952Z,101971.41
2022-11-30T15:12:21.825Z,101980.09
2022-11-30T15:15:27.826Z,101980.09
2022-11-30T15:18:32.139Z,101985.34
2022-11-30T15:21:35.103Z,101994.84
2022-11-30T15:24:38.076Z,101992.28
2022-11-30T15:27:42.881Z,101993.97
2022-11-30T15:30:54.852Z,101991.34
2022-11-30T15:33:59.269Z,101988.69
2022-11-30T15:37:02.419Z,101995.59
2022-11-30T15:40:10.747Z,101996.47
2022-11-30T15:43:22.083Z,101993.06
2022-11-30T15:46:32.531Z,101987.00
2022-11-30T15:49:37.348Z,101986.84
2022-11-30T15:52:45.474Z,101986.06
2022-11-30T15:55:51.224Z,101996.22
2022-11-30T15:59:04.646Z,101997.97
2022-11-30T16:02:23.743Z,102001.50
2022-11-30T16:05:28.111Z,101998.09
2022-11-30T16:08:31.689Z,102004.97
2022-11-30T16:11:36.445Z,102006.75
2022-11-30T16:14:39.426Z,102014.50
2022-11-30T16:17:42.734Z,102019.66
2022-11-30T16:20:51.082Z,102021.41
2022-11-30T16:23:54.210Z,102019.56
2022-11-30T16:26:57.365Z,102017.03
2022-11-30T16:30:00.659Z,102017.81
2022-11-30T16:33:03.844Z,102020.44
2022-11-30T16:36:15.418Z,102017.06
2022-11-30T16:39:18.403Z,102024.78
2022-11-30T16:42:21.617Z,102013.66
2022-11-30T16:45:27.147Z,102021.22
2022-11-30T16:48:30.812Z,102026.31
2022-11-30T16:51:36.116Z,102022.00
2022-11-30T16:54:39.140Z,102027.06
2022-11-30T16:57:42.533Z,102027.00
2022-11-30T17:00:45.681Z,102031.38
2022-11-30T17:03:54.347Z,102037.28
2022-11-30T17:07:02.861Z,102039.81
2022-11-30T17:10:07.862Z,102043.22
2022-11-30T17:13:14.951Z,102036.34
2022-11-30T17:16:17.959Z,102035.47
2022-11-30T17:19:24.030Z,102035.50
2022-11-30T17:22:28.282Z,102037.25
2022-11-30T17:25:31.447Z,102043.41
2022-11-30T17:28:34.498Z,102043.38
2022-11-30T17:31:37.843Z,102046.75
2022-11-30T17:34:41.836Z,102052.88
2022-11-30T17:37:46.283Z,102051.97
2022-11-30T17:40:49.368Z,102051.88
2022-11-30T17:43:52.719Z,102050.25
2022-11-30T17:46:56.348Z,102051.03
2022-11-30T17:49:59.356Z,102053.56
2022-11-30T17:53:04.823Z,102057.03
2022-11-30T17:56:10.657Z,102052.72
2022-11-30T17:59:13.687Z,102060.53
2022-11-30T18:02:16.707Z,102063.88
2022-11-30T18:05:20.373Z,102062.16
2022-11-30T18:08:24.917Z,102057.91
2022-11-30T18:11:28.217Z,102067.31
2022-11-30T18:14:31.171Z,102063.94
2022-11-30T18:17:37.412Z,102074.19
2022-11-30T18:20:40.515Z,102069.94
2022-11-30T18:23:45.050Z,102070.84
2022-11-30T18:26:48.160Z,102074.22
2022-11-30T18:29:52.078Z,102074.25
2022-11-30T18:32:55.003Z,102079.38
2022-11-30T18:35:58.833Z,102087.03
2022-11-30T18:39:03.314Z,102090.53
2022-11-30T18:42:06.283Z,102093.22
2022-11-30T18:45:10.795Z,102098.34
2022-11-30T18:48:13.805Z,102096.59
2022-11-30T18:51:19.348Z,102096.59
2022-11-30T18:54:25.157Z,102097.44
2022-11-30T18:57:28.162Z,102096.56
2022-11-30T19:00:31.164Z,102093.97
2022-11-30T19:03:34.097Z,102105.09
2022-11-30T19:06:38.668Z,102108.53
2022-11-30T19:09:43.434Z,102110.25
2022-11-30T19:12:46.677Z,102108.59
2022-11-30T19:15:50.980Z,102120.56
2022-11-30T19:18:54.573Z,102117.31
2022-11-30T19:21:58.231Z,102121.66
2022-11-30T19:25:02.574Z,102122.50
2022-11-30T19:28:05.977Z,102117.38
2022-11-30T19:31:12.061Z,102116.47
2022-11-30T19:34:15.152Z,102117.41
2022-11-30T19:37:18.124Z,102118.22
2022-11-30T19:40:22.406Z,102114.81
2022-11-30T19:43:25.484Z,102126.88
2022-11-30T19:46:29.037Z,102125.22
2022-11-30T19:49:32.158Z,102129.44
2022-11-30T19:52:35.137Z,102135.38
2022-11-30T19:55:41.167Z,102127.69
2022-11-30T19:58:45.938Z,102131.13
2022-11-30T20:01:48.953Z,102121.72
2022-11-30T20:04:52.109Z,102130.22
2022-11-30T20:07:55.163Z,102140.44
2022-11-30T20:10:59.713Z,102143.09
2022-11-30T20:14:02.888Z,102150.84
2022-11-30T20:17:06.078Z,102144.88
2022-11-30T20:20:11.540Z,102148.31
2022-11-30T20:23:14.548Z,102153.44
2022-11-30T20:26:21.035Z,102152.53
2022-11-30T20:29:24.131Z,102156.84
2022-11-30T20:32:27.573Z,102154.25
2022-11-30T20:35:31.885Z,102151.66
2022-11-30T20:38:35.051Z,102149.97
2022-11-30T20:41:41.301Z,102142.28
2022-11-30T20:44:44.596Z,102143.09
2022-11-30T20:47:47.885Z,102144.75
2022-11-30T20:51:14.166Z,102145.63
2022-11-30T20:54:14.829Z,102147.31
2022-11-30T20:57:19.141Z,102145.59
2022-11-30T21:00:22.222Z,102148.97
2022-11-30T21:03:25.515Z,102152.38
2022-11-30T21:06:29.288Z,102147.28
2022-11-30T21:09:32.229Z,102148.94
2022-11-30T21:12:36.811Z,102148.97
2022-11-30T21:15:39.936Z,102148.19
2022-11-30T21:18:45.679Z,102158.47
2022-11-30T21:21:48.742Z,102155.88
2022-11-30T21:24:52.047Z,102163.66
2022-11-30T21:27:56.311Z,102160.28
2022-11-30T21:31:22.624Z,102169.63
2022-11-30T21:34:31.241Z,102163.66
2022-11-30T21:37:34.203Z,102170.50
2022-11-30T21:40:37.329Z,102165.41
2022-11-30T21:43:42.502Z,102171.34
2022-11-30T21:46:47.376Z,102176.50
2022-11-30T21:49:50.469Z,102173.09
2022-11-30T21:52:53.415Z,102172.25
2022-11-30T21:55:57.067Z,102168.84
2022-11-30T21:59:02.556Z,102169.75
2022-11-30T22:02:05.961Z,102169.75
2022-11-30T22:05:09.626Z,102163.81
2022-11-30T22:08:12.546Z,102163.78
2022-11-30T22:11:17.901Z,102162.97
2022-11-30T22:14:22.272Z,102168.91
2022-11-30T22:17:25.783Z,102165.50
2022-11-30T22:20:28.762Z,102169.84
2022-11-30T22:23:32.696Z,102170.72
2022-11-30T22:26:38.350Z,102170.72
2022-11-30T22:29:42.598Z,102175.00
2022-11-30T22:32:46.408Z,102173.31
2022-11-30T22:35:49.387Z,102177.59
2022-11-30T22:38:55.786Z,102181.91
2022-11-30T22:41:58.824Z,102181.09
2022-11-30T22:45:03.089Z,102173.34
2022-11-30T22:48:06.764Z,102169.91
2022-11-30T22:51:13.707Z,102171.59
2022-11-30T22:54:17.000Z,102165.59
2022-11-30T22:57:20.045Z,102159.56
2022-11-30T23:00:24.857Z,102164.75
2022-11-30T23:03:28.758Z,102160.50
2022-11-30T23:06:32.621Z,102151.94
2022-11-30T23:09:35.565Z,102152.78
2022-11-30T23:12:58.323Z,102148.56
2022-11-30T23:16:04.657Z,102150.22
2022-11-30T23:19:08.765Z,102151.09
2022-11-30T23:22:11.717Z,102145.03
2022-11-30T23:25:14.637Z,102145.88
2022-11-30T23:28:18.235Z,102139.94
2022-11-30T23:31:34.287Z,102149.34
2022-11-30T23:34:41.657Z,102146.75
2022-11-30T23:37:44.718Z,102145.03
2022-11-30T23:40:47.774Z,102139.81
2022-11-30T23:43:50.791Z,102135.56
2022-11-30T23:46:55.085Z,102137.31
2022-11-30T23:49:58.104Z,102138.16
2022-11-30T23:53:01.019Z,102136.47
2022-11-30T23:56:06.776Z,102140.72
2022-11-30T23:59:09.751Z,102144.19
